• Join FlightAware (Why Join?)
  • Login
  • US Flag 
11:50AM EST


 

Airport Tracker/Info


-or-


 

Live Flight TrackerFlight Track Log ✈ EJA312 ✈ 18-Oct-2013 ✈ KSAN - KMRY

Flight Track Log - Related Links

Times and Time Zones

All times are in EDT time to prevent confusion due to time zone crossing. See the EJA312 flight status page for this flight to view local times or setup timezone preferences in your user account.

Time Position Orientation Groundspeed Altitude Reporting Facility
EDT Latitude Longitude Course Direction KTS MPH feet Rate Location/Type
04:51PM 32.7411 -117.2247 304° West 185 213 2,300  Level Los Angeles Center
04:52PM 32.7753 -117.2861 304° West 215 247 5,300 3,060 Climbing Los Angeles Center
04:53PM 32.8294 -117.3631 310° West 269 310 8,700 2,880 Climbing Los Angeles Center
04:54PM 32.8856 -117.4389 311° West 298 343 11,300 2,220 Climbing Los Angeles Center
04:55PM 32.9497 -117.5239 312° West 334 384 13,300 1,920 Climbing Los Angeles Center
04:56PM 33.0172 -117.6150 311° West 359 413 15,300 1,920 Climbing Los Angeles Center
04:57PM 33.0864 -117.7078 312° West 371 427 17,300 1,920 Climbing Los Angeles Center
04:58PM 33.1572 -117.8036 311° West 382 440 19,300 2,100 Climbing Los Angeles Center
04:59PM 33.2278 -117.9322 303° West 385 443 21,700 2,100 Climbing Los Angeles Center
05:00PM 33.3011 -118.0258 313° West 384 442 23,700 1,920 Climbing Los Angeles Center
05:01PM 33.3694 -118.1228 310° West 381 438 25,700 1,740 Climbing Los Angeles Center
05:02PM 33.4383 -118.2206 310° West 382 440 27,400 1,500 Climbing Los Angeles Center
05:03PM 33.5092 -118.3225 310° West 391 450 28,900 1,200 Climbing Los Angeles Center
05:04PM 33.5839 -118.4281 310° West 405 466 30,000 480 Climbing Los Angeles Center
05:05PM 33.6625 -118.5411 310° West 432 497 30,000  Level Los Angeles Center
05:06PM 33.7414 -118.6542 310° West 437 503 30,000  Level Los Angeles Center
05:08PM 33.8350 -118.7889 310° West 435 501 30,000  Level Los Angeles Center
05:09PM 33.9119 -118.8992 310° West 432 497 30,000  Level Los Angeles Center
05:10PM 33.9892 -119.0119 310° West 435 501 30,000  Level Los Angeles Center
05:11PM 34.0664 -119.1236 310° West 434 499 30,000  Level Los Angeles Center
05:12PM 34.1433 -119.2347 310° West 434 499 30,000  Level Los Angeles Center
05:13PM 34.2192 -119.3483 309° West 435 501 30,000  Level Los Angeles Center
05:14PM 34.3117 -119.4825 310° West 435 501 30,000  Level Los Angeles Center
05:15PM 34.3981 -119.5839 316° Northwest 437 503 30,000  Level Los Angeles Center
05:16PM 34.4958 -119.6686 324° Northwest 433 498 30,000  Level Los Angeles Center
05:17PM 34.5944 -119.7556 324° Northwest 436 502 30,000  Level Los Angeles Center
05:18PM 34.7033 -119.8469 325° Northwest 438 504 30,000  Level Los Angeles Center
05:19PM 34.8022 -119.9336 324° Northwest 438 504 30,000  Level Los Angeles Center
05:20PM 34.9017 -120.0200 325° Northwest 439 505 30,000  Level Los Angeles Center
05:21PM 35.0053 -120.1106 324° Northwest 439 505 30,000  Level Los Angeles Center
05:22PM 35.1036 -120.1969 324° Northwest 438 504 30,000  Level Los Angeles Center
05:23PM 35.2025 -120.2836 324° Northwest 440 506 30,000  Level Los Angeles Center
05:24PM 35.3219 -120.3881 325° Northwest 442 509 30,000  Level Los Angeles Center
05:25PM 35.4172 -120.4794 322° Northwest 440 506 30,000  Level Los Angeles Center
05:26PM 35.5128 -120.5722 322° Northwest 441 507 30,000  Level Los Angeles Center
05:27PM 35.6089 -120.6639 322° Northwest 439 505 30,000 -840 Level Los Angeles Center
05:28PM 35.7114 -120.7644 321° Northwest 440 506 28,300 -2,400 Descending Los Angeles Center
05:29PM 35.8292 -120.8794 322° Northwest 450 518 25,000 -2,940 Descending Oakland Center
05:30PM 35.9258 -120.9731 322° Northwest 443 510 22,100 -2,820 Descending Oakland Center
05:31PM 36.0164 -121.0628 321° Northwest 420 483 19,300 -2,580 Descending Oakland Center
05:32PM 36.1089 -121.1525 322° Northwest 422 486 16,900 -2,400 Descending Oakland Center
05:33PM 36.1964 -121.2383 322° Northwest 405 466 14,400 -2,460 Descending Oakland Center
05:34PM 36.2769 -121.3192 321° Northwest 374 430 11,900 -2,460 Descending Oakland Center
05:35PM 36.3414 -121.3844 321° Northwest 303 349 9,400 -2,700 Descending Oakland Center
05:36PM 36.4153 -121.4575 322° Northwest 284 327 6,400 -1,800 Descending Oakland Center
05:38PM 36.4711 -121.5128 321° Northwest 269 310 5,800 -780 Descending Oakland Center
05:39PM 36.4972 -121.5822 295° West 237 273 4,900 -600 Descending Oakland Center
05:40PM 36.5161 -121.6506 289° West 233 268 4,600 -1,020 Descending Oakland Center
05:41PM 36.5333 -121.7000 293° West 165 190 2,900 -1,260 Descending Northern Cal TRACON
05:42PM 36.5500 -121.7500 293° West 135 155 2,100 -900 Descending Northern Cal TRACON
05:43PM 36.5667 -121.7833 302° West 125 144 1,200 -900 Descending Northern Cal TRACON